createdAt,value
2022-10-23T00:01:21.570Z,99.90
2022-10-23T00:03:56.340Z,99.90
2022-10-23T00:06:25.387Z,99.90
2022-10-23T00:08:53.605Z,99.90
2022-10-23T00:11:25.708Z,99.90
2022-10-23T00:13:56.099Z,1.00
2022-10-23T00:16:24.396Z,1.00
2022-10-23T00:18:52.545Z,1.00
2022-10-23T00:21:20.864Z,1.00
2022-10-23T00:23:49.010Z,99.90
2022-10-23T00:26:17.515Z,1.00
2022-10-23T00:28:48.935Z,99.90
2022-10-23T00:31:17.640Z,99.90
2022-10-23T00:33:46.303Z,99.90
2022-10-23T00:36:17.253Z,91.40
2022-10-23T00:38:45.835Z,99.90
2022-10-23T00:41:18.620Z,99.90
2022-10-23T00:44:06.305Z,99.90
2022-10-23T00:46:34.946Z,1.00
2022-10-23T00:49:04.234Z,1.00
2022-10-23T00:51:37.264Z,99.90
2022-10-23T00:54:23.350Z,99.90
2022-10-23T00:56:53.475Z,99.90
2022-10-23T00:59:23.026Z,99.90
2022-10-23T01:01:51.368Z,99.90
2022-10-23T01:04:20.123Z,99.90
2022-10-23T01:06:56.445Z,99.90
2022-10-23T01:09:33.420Z,99.90
2022-10-23T01:12:08.485Z,99.90
2022-10-23T01:14:44.746Z,99.90
2022-10-23T01:17:20.844Z,1.00
2022-10-23T01:20:02.433Z,99.90
2022-10-23T01:22:48.406Z,1.00
2022-10-23T01:25:45.405Z,1.00
2022-10-23T01:28:21.685Z,99.90
2022-10-23T01:30:50.469Z,99.90
2022-10-23T01:33:26.675Z,99.90
2022-10-23T01:36:01.408Z,99.90
2022-10-23T01:38:39.145Z,99.90
2022-10-23T01:41:13.490Z,99.90
2022-10-23T01:43:47.573Z,99.90
2022-10-23T01:46:18.658Z,99.90
2022-10-23T01:48:52.099Z,1.00
2022-10-23T01:51:23.149Z,1.00
2022-10-23T01:53:53.885Z,1.00
2022-10-23T01:56:27.181Z,1.00
2022-10-23T01:58:59.513Z,1.00
2022-10-23T02:01:30.492Z,1.00
2022-10-23T02:04:01.461Z,1.00
2022-10-23T02:06:29.886Z,1.00
2022-10-23T02:08:58.367Z,1.00
2022-10-23T02:11:26.613Z,1.00
2022-10-23T02:14:03.005Z,1.00
2022-10-23T02:16:38.349Z,1.00
2022-10-23T02:19:16.811Z,1.00
2022-10-23T02:21:54.013Z,1.00
2022-10-23T02:24:27.864Z,1.00
2022-10-23T02:26:59.155Z,1.00
2022-10-23T02:29:32.089Z,1.00
2022-10-23T02:32:00.421Z,1.00
2022-10-23T02:34:28.674Z,1.00
2022-10-23T02:36:57.448Z,1.00
2022-10-23T02:39:28.694Z,1.00
2022-10-23T02:42:03.015Z,1.00
2022-10-23T02:44:44.205Z,1.00
2022-10-23T02:47:22.615Z,1.00
2022-10-23T02:49:55.660Z,1.00
2022-10-23T02:52:30.801Z,1.00
2022-10-23T02:55:09.973Z,1.00
2022-10-23T02:57:43.872Z,1.00
2022-10-23T03:00:16.456Z,1.00
2022-10-23T03:02:47.731Z,1.00
2022-10-23T03:05:19.486Z,1.00
2022-10-23T03:07:48.015Z,99.90
2022-10-23T03:10:16.402Z,99.90
2022-10-23T03:12:44.979Z,99.90
2022-10-23T03:15:14.755Z,99.90
2022-10-23T03:17:42.871Z,99.90
2022-10-23T03:20:12.075Z,1.00
2022-10-23T03:22:41.046Z,1.00
2022-10-23T03:25:10.221Z,1.00
2022-10-23T03:27:38.508Z,1.00
2022-10-23T03:30:08.538Z,1.00
2022-10-23T03:32:38.120Z,1.00
2022-10-23T03:35:07.284Z,1.00
2022-10-23T03:37:35.571Z,99.90
2022-10-23T03:40:04.004Z,99.90
2022-10-23T03:42:32.104Z,99.90
2022-10-23T03:45:00.220Z,99.90
2022-10-23T03:47:30.223Z,99.90
2022-10-23T03:49:59.979Z,99.90
2022-10-23T03:52:28.461Z,1.00
2022-10-23T03:54:56.598Z,1.00
2022-10-23T03:57:25.284Z,1.00
2022-10-23T03:59:53.664Z,1.00
2022-10-23T04:02:21.860Z,1.00
2022-10-23T04:04:50.083Z,1.00
2022-10-23T04:07:22.368Z,99.90
2022-10-23T04:09:50.462Z,1.00
2022-10-23T04:12:21.118Z,1.00
2022-10-23T04:14:49.235Z,1.00
2022-10-23T04:17:17.349Z,1.00
2022-10-23T04:19:48.041Z,99.90
2022-10-23T04:22:16.211Z,99.90
2022-10-23T04:24:46.763Z,1.00
2022-10-23T04:27:15.268Z,1.00
2022-10-23T04:29:43.466Z,1.00
2022-10-23T04:32:11.672Z,1.00
2022-10-23T04:34:39.762Z,1.00
2022-10-23T04:37:07.837Z,1.00
2022-10-23T04:39:35.922Z,1.00
2022-10-23T04:42:05.628Z,1.00
2022-10-23T04:44:33.746Z,1.00
2022-10-23T04:47:01.851Z,1.00
2022-10-23T04:49:30.020Z,1.00
2022-10-23T04:51:58.278Z,1.00
2022-10-23T04:54:26.495Z,1.00
2022-10-23T04:56:54.637Z,1.00
2022-10-23T04:59:24.132Z,1.00
2022-10-23T05:01:52.331Z,1.00
2022-10-23T05:04:20.485Z,1.00
2022-10-23T05:06:48.705Z,1.00
2022-10-23T05:09:16.957Z,1.00
2022-10-23T05:11:45.053Z,1.00
2022-10-23T05:14:13.253Z,1.00
2022-10-23T05:16:47.604Z,1.00
2022-10-23T05:19:24.188Z,1.00
2022-10-23T05:21:55.908Z,1.00
2022-10-23T05:24:24.387Z,1.00
2022-10-23T05:26:53.793Z,1.00
2022-10-23T05:29:22.616Z,1.00
2022-10-23T05:31:57.012Z,1.00
2022-10-23T05:34:27.296Z,1.00
2022-10-23T05:36:56.129Z,1.00
2022-10-23T05:39:25.051Z,1.00
2022-10-23T05:41:55.002Z,1.00
2022-10-23T05:44:23.185Z,1.00
2022-10-23T05:46:52.800Z,1.00
2022-10-23T05:49:20.939Z,1.00
2022-10-23T05:51:49.097Z,1.00
2022-10-23T05:54:17.283Z,99.90
2022-10-23T05:56:45.424Z,99.90
2022-10-23T05:59:13.547Z,99.90
2022-10-23T06:01:41.784Z,1.00
2022-10-23T06:04:11.444Z,1.00
2022-10-23T06:06:39.655Z,1.00
2022-10-23T06:09:07.911Z,1.00
2022-10-23T06:11:36.123Z,1.00
2022-10-23T06:14:04.314Z,1.00
2022-10-23T06:16:32.577Z,1.00
2022-10-23T06:19:03.522Z,1.00
2022-10-23T06:21:33.141Z,1.00
2022-10-23T06:24:01.231Z,1.00
2022-10-23T06:26:29.437Z,1.00
2022-10-23T06:28:57.734Z,1.00
2022-10-23T06:31:27.880Z,1.00
2022-10-23T06:33:56.772Z,1.00
2022-10-23T06:36:24.977Z,1.00
2022-10-23T06:38:56.374Z,1.00
2022-10-23T06:41:24.616Z,1.00
2022-10-23T06:43:53.464Z,1.00
2022-10-23T06:46:21.674Z,1.00
2022-10-23T06:48:50.032Z,1.00
2022-10-23T06:51:18.902Z,1.00
2022-10-23T06:53:47.490Z,1.00
2022-10-23T06:56:17.080Z,1.00
2022-10-23T06:58:45.251Z,1.00
2022-10-23T07:01:14.699Z,1.00
2022-10-23T07:03:43.578Z,1.00
2022-10-23T07:06:12.838Z,1.00
2022-10-23T07:08:41.025Z,1.00
2022-10-23T07:11:11.458Z,1.00
2022-10-23T07:13:42.607Z,1.00
2022-10-23T07:16:12.920Z,99.90
2022-10-23T07:18:41.381Z,1.00
2022-10-23T07:21:09.688Z,1.00
2022-10-23T07:23:38.365Z,99.90
2022-10-23T07:26:08.703Z,99.90
2022-10-23T07:28:36.959Z,1.00
2022-10-23T07:31:06.692Z,1.00
2022-10-23T07:33:35.063Z,1.00
2022-10-23T07:36:05.532Z,1.00
2022-10-23T07:38:34.341Z,1.00
2022-10-23T07:41:02.990Z,99.90
2022-10-23T07:46:00.482Z,1.00
2022-10-23T07:48:30.827Z,98.80
2022-10-23T07:51:01.032Z,1.00
2022-10-23T07:53:29.553Z,1.00
2022-10-23T07:55:59.581Z,1.00
2022-10-23T07:58:29.002Z,80.30
2022-10-23T08:00:58.935Z,1.00
2022-10-23T08:03:27.440Z,99.90
2022-10-23T08:05:57.925Z,99.90
2022-10-23T08:08:27.283Z,99.90
2022-10-23T08:10:56.464Z,99.90
2022-10-23T08:13:24.722Z,99.90
2022-10-23T08:15:53.538Z,45.60
2022-10-23T08:18:21.769Z,20.50
2022-10-23T08:20:52.411Z,1.00
2022-10-23T08:23:21.996Z,1.00
2022-10-23T08:25:50.181Z,1.00
2022-10-23T08:28:18.343Z,1.00
2022-10-23T08:30:46.519Z,1.00
2022-10-23T08:33:14.701Z,1.00
2022-10-23T08:35:42.877Z,1.00
2022-10-23T08:38:12.045Z,1.00
2022-10-23T08:40:45.947Z,1.00
2022-10-23T08:43:21.590Z,12.90
2022-10-23T08:45:54.645Z,49.10
2022-10-23T08:48:27.650Z,1.00
2022-10-23T08:51:00.524Z,1.00
2022-10-23T08:53:33.936Z,1.00
2022-10-23T08:56:08.108Z,1.00
2022-10-23T08:58:40.973Z,1.00
2022-10-23T09:01:34.090Z,1.00
2022-10-23T09:04:02.975Z,1.00
2022-10-23T09:06:37.974Z,99.90
2022-10-23T09:09:24.099Z,99.90
2022-10-23T09:12:01.324Z,99.90
2022-10-23T09:14:50.357Z,99.90
2022-10-23T09:17:25.593Z,99.90
2022-10-23T09:20:00.359Z,99.90
2022-10-23T09:22:29.547Z,99.90
2022-10-23T09:24:57.739Z,99.90
2022-10-23T09:27:27.575Z,99.90
2022-10-23T09:29:58.378Z,99.90
2022-10-23T09:32:37.526Z,99.90
2022-10-23T09:35:07.249Z,99.90
2022-10-23T09:37:37.529Z,99.90
2022-10-23T09:40:18.215Z,99.90
2022-10-23T09:42:56.620Z,99.90
2022-10-23T09:45:31.463Z,99.90
2022-10-23T09:48:17.395Z,99.90
2022-10-23T09:50:54.349Z,99.90
2022-10-23T09:53:33.801Z,99.90
2022-10-23T09:56:05.053Z,99.90
2022-10-23T09:58:37.516Z,99.90
2022-10-23T10:01:06.177Z,99.90
2022-10-23T10:03:34.381Z,99.90
2022-10-23T10:06:04.191Z,99.90
2022-10-23T10:08:45.450Z,99.90
2022-10-23T10:11:18.954Z,99.90
2022-10-23T10:14:13.635Z,99.90
2022-10-23T10:16:50.171Z,99.90
2022-10-23T10:19:37.620Z,99.90
2022-10-23T10:22:27.111Z,99.90
2022-10-23T10:25:01.528Z,99.90
2022-10-23T10:27:39.573Z,99.90
2022-10-23T10:30:17.009Z,99.90
2022-10-23T10:32:50.729Z,99.90
2022-10-23T10:35:27.132Z,99.90
2022-10-23T10:38:21.466Z,99.90
2022-10-23T10:41:05.125Z,99.90
2022-10-23T10:43:40.079Z,99.90
2022-10-23T10:46:19.680Z,99.90
2022-10-23T10:48:52.886Z,99.90
2022-10-23T10:51:28.861Z,99.90
2022-10-23T10:54:09.405Z,99.90
2022-10-23T10:56:42.794Z,99.90
2022-10-23T10:59:17.938Z,99.90
2022-10-23T11:01:54.607Z,99.90
2022-10-23T11:04:33.130Z,99.90
2022-10-23T11:07:08.129Z,99.90
2022-10-23T11:09:36.284Z,99.90
2022-10-23T11:12:04.728Z,99.90
2022-10-23T11:14:34.995Z,99.90
2022-10-23T11:17:10.480Z,99.90
2022-10-23T11:19:43.968Z,99.90
2022-10-23T11:22:18.056Z,99.90
2022-10-23T11:25:14.649Z,99.90
2022-10-23T11:28:05.257Z,99.90
2022-10-23T11:30:44.782Z,99.90
2022-10-23T11:33:43.955Z,99.90
2022-10-23T11:36:17.342Z,99.90
2022-10-23T11:38:47.625Z,99.90
2022-10-23T11:41:25.442Z,99.90
2022-10-23T11:43:57.466Z,99.90
2022-10-23T11:46:33.980Z,99.90
2022-10-23T11:49:06.122Z,99.90
2022-10-23T11:51:36.148Z,99.90
2022-10-23T11:54:24.423Z,99.90
2022-10-23T11:57:08.055Z,99.90
2022-10-23T11:59:51.515Z,99.90
2022-10-23T12:02:32.968Z,99.90
2022-10-23T12:05:06.783Z,99.90
2022-10-23T12:07:38.798Z,99.90
2022-10-23T12:10:18.873Z,99.90
2022-10-23T12:12:58.183Z,99.90
2022-10-23T12:15:27.432Z,99.90
2022-10-23T12:17:58.587Z,99.90
2022-10-23T12:20:39.090Z,99.90
2022-10-23T12:23:36.982Z,99.90
2022-10-23T12:26:34.929Z,99.90
2022-10-23T12:29:11.540Z,99.90
2022-10-23T12:31:48.544Z,99.90
2022-10-23T12:34:33.075Z,99.90
2022-10-23T12:37:20.382Z,99.90
2022-10-23T12:39:53.764Z,99.90
2022-10-23T12:42:25.194Z,99.90
2022-10-23T12:45:00.877Z,99.90
2022-10-23T12:47:31.014Z,99.90
2022-10-23T12:49:59.280Z,99.90
2022-10-23T12:52:28.862Z,99.90
2022-10-23T12:54:59.440Z,99.90
2022-10-23T12:57:30.532Z,99.90
2022-10-23T13:00:02.414Z,99.90
2022-10-23T13:02:33.196Z,99.90
2022-10-23T13:05:03.900Z,99.90
2022-10-23T13:07:36.861Z,99.90
2022-10-23T13:10:06.420Z,99.90
2022-10-23T13:12:36.810Z,99.90
2022-10-23T13:15:18.149Z,99.90
2022-10-23T13:17:48.412Z,99.90
2022-10-23T13:20:28.981Z,99.90
2022-10-23T13:23:10.417Z,99.90
2022-10-23T13:25:40.811Z,99.90
2022-10-23T13:28:30.656Z,99.90
2022-10-23T13:31:15.281Z,99.90
2022-10-23T13:33:45.715Z,99.90
2022-10-23T13:36:24.967Z,99.90
2022-10-23T13:39:05.654Z,99.90
2022-10-23T13:41:38.644Z,99.90
2022-10-23T13:44:06.941Z,99.90
2022-10-23T13:46:35.128Z,99.90
2022-10-23T13:49:03.263Z,99.90
2022-10-23T13:51:42.525Z,99.90
2022-10-23T13:54:16.899Z,99.90
2022-10-23T13:56:45.510Z,99.90
2022-10-23T13:59:13.994Z,99.90
2022-10-23T14:01:43.218Z,99.90
2022-10-23T14:04:12.396Z,99.90
2022-10-23T14:06:41.752Z,99.90
2022-10-23T14:09:14.456Z,99.90
2022-10-23T14:11:42.776Z,99.90
2022-10-23T14:14:11.124Z,99.90
2022-10-23T14:16:39.348Z,99.90
2022-10-23T14:19:07.993Z,99.90
2022-10-23T14:21:36.231Z,99.90
2022-10-23T14:24:04.457Z,99.90
2022-10-23T14:26:34.361Z,99.90
2022-10-23T14:29:06.905Z,99.90
2022-10-23T14:31:38.487Z,99.90
2022-10-23T14:34:06.711Z,99.90
2022-10-23T14:36:43.630Z,99.90
2022-10-23T14:39:19.296Z,99.90
2022-10-23T14:41:48.985Z,1.00
2022-10-23T14:44:17.202Z,1.00
2022-10-23T14:46:45.323Z,1.00
2022-10-23T14:49:13.479Z,1.00
2022-10-23T14:51:41.651Z,1.00
2022-10-23T14:54:10.164Z,1.00
2022-10-23T14:56:40.837Z,1.00
2022-10-23T14:59:11.726Z,1.00
2022-10-23T15:01:45.163Z,1.00
2022-10-23T15:04:15.917Z,1.00
2022-10-23T15:06:45.123Z,1.00
2022-10-23T15:09:13.330Z,1.00
2022-10-23T15:11:41.572Z,1.00
2022-10-23T15:14:11.119Z,1.00
2022-10-23T15:16:41.648Z,1.00
2022-10-23T15:19:13.517Z,1.00
2022-10-23T15:21:45.576Z,1.00
2022-10-23T15:24:13.813Z,1.00
2022-10-23T15:26:43.210Z,1.00
2022-10-23T15:29:14.625Z,1.00
2022-10-23T15:31:45.276Z,1.00
2022-10-23T15:34:17.503Z,1.00
2022-10-23T15:36:46.997Z,1.00
2022-10-23T15:39:17.379Z,1.00
2022-10-23T15:41:45.840Z,1.00
2022-10-23T15:44:17.344Z,1.00
2022-10-23T15:46:45.499Z,1.00
2022-10-23T15:49:14.247Z,1.00
2022-10-23T15:51:43.066Z,1.00
2022-10-23T15:54:16.450Z,1.00
2022-10-23T15:56:45.061Z,1.00
2022-10-23T15:59:13.535Z,1.00
2022-10-23T16:01:43.625Z,1.00
2022-10-23T16:04:11.914Z,1.00
2022-10-23T16:06:40.357Z,1.00
2022-10-23T16:09:08.513Z,1.00
2022-10-23T16:11:39.311Z,1.00
2022-10-23T16:14:08.575Z,1.00
2022-10-23T16:16:36.751Z,1.00
2022-10-23T16:19:06.453Z,1.00
2022-10-23T16:21:36.797Z,1.00
2022-10-23T16:24:07.900Z,1.00
2022-10-23T16:26:37.225Z,1.00
2022-10-23T16:29:07.733Z,1.00
2022-10-23T16:31:36.264Z,1.00
2022-10-23T16:34:06.950Z,1.00
2022-10-23T16:36:38.998Z,1.00
2022-10-23T16:39:09.067Z,1.00
2022-10-23T16:41:37.376Z,1.00
2022-10-23T16:44:06.206Z,15.50
2022-10-23T16:46:35.511Z,90.20
2022-10-23T16:49:06.105Z,71.50
2022-10-23T16:51:34.493Z,94.60
2022-10-23T16:54:02.632Z,98.20
2022-10-23T16:56:31.096Z,99.90
2022-10-23T16:59:00.663Z,35.70
2022-10-23T17:01:32.015Z,98.60
2022-10-23T17:04:01.106Z,34.50
2022-10-23T17:06:32.742Z,55.50
2022-10-23T17:09:01.790Z,99.90
2022-10-23T17:11:31.966Z,99.90
2022-10-23T17:14:02.427Z,1.00
2022-10-23T17:16:34.480Z,99.90
2022-10-23T17:19:04.297Z,99.90
2022-10-23T17:21:40.270Z,99.90
2022-10-23T17:24:09.983Z,1.00
2022-10-23T17:26:39.203Z,48.20
2022-10-23T17:29:10.165Z,1.00
2022-10-23T17:31:40.635Z,1.00
2022-10-23T17:34:12.812Z,1.00
2022-10-23T17:36:45.141Z,99.90
2022-10-23T17:39:15.600Z,99.90
2022-10-23T17:41:44.627Z,1.00
2022-10-23T17:44:12.962Z,99.90
2022-10-23T17:46:41.312Z,1.00
2022-10-23T17:49:09.726Z,1.00
2022-10-23T17:51:38.007Z,1.00
2022-10-23T17:54:09.992Z,1.00
2022-10-23T17:56:38.765Z,99.90
2022-10-23T17:59:08.972Z,40.10
2022-10-23T18:01:37.817Z,5.10
2022-10-23T18:04:08.260Z,1.00
2022-10-23T18:06:38.791Z,1.00
2022-10-23T18:09:08.418Z,1.00
2022-10-23T18:11:38.296Z,24.00
2022-10-23T18:14:07.679Z,1.00
2022-10-23T18:16:37.887Z,1.00
2022-10-23T18:19:06.304Z,99.90
2022-10-23T18:21:35.818Z,99.90
2022-10-23T18:24:05.070Z,99.90
2022-10-23T18:26:37.654Z,1.00
2022-10-23T18:29:08.595Z,99.90
2022-10-23T18:31:38.723Z,99.90
2022-10-23T18:34:09.032Z,1.00
2022-10-23T18:36:40.710Z,1.00
2022-10-23T18:39:12.532Z,94.10
2022-10-23T18:41:44.099Z,99.90
2022-10-23T18:44:16.887Z,99.90
2022-10-23T18:46:45.419Z,99.90
2022-10-23T18:49:13.675Z,1.00
2022-10-23T18:51:42.264Z,1.00
2022-10-23T18:54:12.952Z,1.00
2022-10-23T18:56:42.889Z,1.00
2022-10-23T18:59:14.526Z,35.20
2022-10-23T19:01:43.447Z,1.00
2022-10-23T19:04:15.369Z,1.00
2022-10-23T19:06:44.132Z,99.90
2022-10-23T19:09:14.854Z,99.90
2022-10-23T19:11:45.512Z,99.90
2022-10-23T19:14:13.968Z,97.00
2022-10-23T19:16:47.182Z,1.00
2022-10-23T19:19:20.568Z,1.00
2022-10-23T19:21:49.953Z,1.00
2022-10-23T19:24:22.479Z,1.00
2022-10-23T19:26:52.323Z,1.00
2022-10-23T19:29:22.960Z,1.00
2022-10-23T19:31:51.796Z,1.00
2022-10-23T19:34:22.854Z,1.00
2022-10-23T19:36:52.018Z,1.00
2022-10-23T19:39:20.661Z,1.00
2022-10-23T19:41:51.512Z,1.00
2022-10-23T19:44:22.189Z,1.00
2022-10-23T19:46:51.111Z,1.00
2022-10-23T19:49:19.838Z,1.00
2022-10-23T19:51:51.240Z,1.00
2022-10-23T19:54:19.953Z,1.00
2022-10-23T19:56:48.508Z,1.00
2022-10-23T19:59:16.976Z,1.00
2022-10-23T20:01:48.948Z,1.00
2022-10-23T20:04:18.178Z,1.00
2022-10-23T20:06:46.458Z,1.00
2022-10-23T20:09:14.654Z,1.00
2022-10-23T20:11:43.575Z,1.00
2022-10-23T20:14:11.857Z,1.00
2022-10-23T20:16:40.840Z,1.00
2022-10-23T20:19:12.924Z,1.00
2022-10-23T20:21:43.737Z,1.00
2022-10-23T20:24:13.439Z,1.00
2022-10-23T20:26:42.666Z,1.00
2022-10-23T20:29:11.080Z,1.00
2022-10-23T20:31:39.935Z,1.00
2022-10-23T20:34:08.550Z,1.00
2022-10-23T20:36:45.449Z,1.00
2022-10-23T20:39:17.710Z,1.00
2022-10-23T20:41:46.113Z,1.00
2022-10-23T20:46:45.861Z,1.00
2022-10-23T20:49:15.123Z,1.00
2022-10-23T20:51:44.994Z,1.00
2022-10-23T20:54:13.074Z,1.00
2022-10-23T20:56:41.290Z,1.00
2022-10-23T20:59:13.053Z,1.00
2022-10-23T21:01:42.283Z,1.00
2022-10-23T21:04:13.180Z,1.00
2022-10-23T21:07:04.431Z,1.00
2022-10-23T21:09:32.295Z,1.00
2022-10-23T21:12:00.552Z,1.00
2022-10-23T21:14:28.782Z,1.00
2022-10-23T21:16:57.005Z,1.00
2022-10-23T21:19:25.129Z,1.00
2022-10-23T21:21:53.318Z,1.00
2022-10-23T21:24:21.522Z,1.00
2022-10-23T21:26:51.073Z,1.00
2022-10-23T21:29:20.352Z,1.00
2022-10-23T21:31:53.782Z,1.00
2022-10-23T21:34:22.140Z,1.00
2022-10-23T21:39:38.530Z,1.00
2022-10-23T21:42:08.681Z,1.00
2022-10-23T21:44:36.943Z,1.00
2022-10-23T21:47:05.533Z,1.00
2022-10-23T21:49:33.751Z,1.00
2022-10-23T21:52:01.934Z,1.00
2022-10-23T21:54:30.135Z,1.00
2022-10-23T21:56:58.253Z,1.00
2022-10-23T21:59:30.253Z,1.00
2022-10-23T22:02:00.370Z,1.00
2022-10-23T22:04:28.743Z,1.00
2022-10-23T22:06:56.893Z,1.00
2022-10-23T22:09:25.055Z,1.00
2022-10-23T22:11:54.467Z,1.00
2022-10-23T22:14:23.263Z,1.00
2022-10-23T22:16:53.229Z,1.00
2022-10-23T22:19:23.291Z,1.00
2022-10-23T22:21:52.182Z,1.00
2022-10-23T22:24:20.698Z,1.00
2022-10-23T22:26:50.656Z,1.00
2022-10-23T22:29:22.018Z,1.00
2022-10-23T22:31:50.311Z,1.00
2022-10-23T22:34:47.772Z,1.00
2022-10-23T22:37:11.687Z,1.00
2022-10-23T22:39:40.846Z,1.00
2022-10-23T22:42:09.266Z,1.00
2022-10-23T22:44:37.374Z,1.00
2022-10-23T22:47:06.291Z,1.00
2022-10-23T22:49:35.892Z,1.00
2022-10-23T22:52:04.103Z,1.00
2022-10-23T22:54:32.389Z,1.00
2022-10-23T22:57:00.605Z,1.00
2022-10-23T22:59:28.781Z,1.00
2022-10-23T23:01:57.038Z,1.00
2022-10-23T23:04:37.203Z,1.00
2022-10-23T23:07:08.626Z,1.00
2022-10-23T23:09:38.403Z,1.00
2022-10-23T23:12:07.109Z,1.00
2022-10-23T23:14:35.348Z,1.00
2022-10-23T23:17:03.657Z,1.00
2022-10-23T23:19:31.801Z,1.00
2022-10-23T23:22:00.861Z,1.00
2022-10-23T23:24:30.443Z,1.00
2022-10-23T23:26:58.639Z,1.00
2022-10-23T23:29:26.939Z,1.00
2022-10-23T23:31:55.163Z,1.00
2022-10-23T23:34:23.285Z,1.00
2022-10-23T23:36:51.417Z,1.00
2022-10-23T23:39:19.571Z,1.00
2022-10-23T23:41:49.161Z,1.00
2022-10-23T23:44:17.399Z,1.00
2022-10-23T23:46:45.575Z,1.00
2022-10-23T23:49:13.726Z,1.00
2022-10-23T23:51:41.972Z,1.00
2022-10-23T23:54:10.027Z,1.00
2022-10-23T23:56:38.228Z,1.00
2022-10-23T23:59:07.696Z,1.00
